KBJC/BJC METAR and TAF weather

Enter ICAO airport designator
Station Type Date Time Source
KBJC METAR 2020/09/22 16:47 UTC NOAA

KBJC 221647Z 06006KT 10SM SCT120 24/02 A3022


Station Type Date Time Source
KBJC Decoded METAR 2020/09/22 16:47 UTC NOAA

Broomfield / Jeffco, CO, United States (KBJC) 39-55N 105-07W
Sep 22, 2020 - 12:47 PM EDT / 2020.09.22 1647 UTC
Wind: from the ENE (060 degrees) at 7 MPH (6 KT):0
Visibility: 10 mile(s):0
Sky conditions: partly cloudy
Temperature: 75 F (24 C)
Dew Point: 35 F (2 C)
Relative Humidity: 23%
Pressure (altimeter): 30.22 in. Hg (1023 hPa)
ob: KBJC 221647Z 06006KT 10SM SCT120 24/02 A3022
cycle: 17

Station Type Date Time Source
KBJC TAF 2020/09/22 18:24 UTC NOAA

TAF KBJC 221721Z 2218/2318 08008KT P6SM FEW090 SCT150 BKN220
FM222100 23011KT P6SM VCSH SCT120 BKN220
TEMPO 2221/2301 VRB15G35KT
FM230200 24005KT P6SM SCT120 BKN220
FM230600 28007KT P6SM BKN220
FM231600 32009KT P6SM FEW120 SCT220

Example: see airport list